sensor_id;sensor_type;location;lat;lon;timestamp;P1;durP1;ratioP1;P2;durP2;ratioP2
64682;SDS011;51107;47.652;19.016;2024-01-30T00:02:19;8.00;;;4.87;;
64682;SDS011;51107;47.652;19.016;2024-01-30T00:04:47;10.05;;;4.18;;
64682;SDS011;51107;47.652;19.016;2024-01-30T00:07:15;7.60;;;3.50;;
64682;SDS011;51107;47.652;19.016;2024-01-30T00:09:46;11.85;;;5.20;;
64682;SDS011;51107;47.652;19.016;2024-01-30T00:12:15;11.73;;;4.15;;
64682;SDS011;51107;47.652;19.016;2024-01-30T00:14:43;7.78;;;3.22;;
64682;SDS011;51107;47.652;19.016;2024-01-30T00:17:12;11.88;;;4.68;;
64682;SDS011;51107;47.652;19.016;2024-01-30T00:19:40;7.10;;;3.45;;
64682;SDS011;51107;47.652;19.016;2024-01-30T00:22:08;8.35;;;4.40;;
64682;SDS011;51107;47.652;19.016;2024-01-30T00:24:36;6.70;;;3.80;;
64682;SDS011;51107;47.652;19.016;2024-01-30T00:27:05;9.13;;;2.95;;
64682;SDS011;51107;47.652;19.016;2024-01-30T00:29:33;17.23;;;3.53;;
64682;SDS011;51107;47.652;19.016;2024-01-30T00:32:01;5.60;;;2.97;;
64682;SDS011;51107;47.652;19.016;2024-01-30T00:34:30;8.13;;;3.35;;
64682;SDS011;51107;47.652;19.016;2024-01-30T00:36:58;4.25;;;2.83;;
64682;SDS011;51107;47.652;19.016;2024-01-30T00:39:26;6.20;;;3.92;;
64682;SDS011;51107;47.652;19.016;2024-01-30T00:41:54;4.15;;;3.22;;
64682;SDS011;51107;47.652;19.016;2024-01-30T00:44:22;7.00;;;3.47;;
64682;SDS011;51107;47.652;19.016;2024-01-30T00:46:50;10.00;;;4.65;;
64682;SDS011;51107;47.652;19.016;2024-01-30T00:49:19;9.95;;;4.37;;
64682;SDS011;51107;47.652;19.016;2024-01-30T00:51:47;7.57;;;4.00;;
64682;SDS011;51107;47.652;19.016;2024-01-30T00:54:16;7.45;;;4.25;;
64682;SDS011;51107;47.652;19.016;2024-01-30T00:56:44;8.02;;;3.12;;
64682;SDS011;51107;47.652;19.016;2024-01-30T00:59:12;11.65;;;5.15;;
64682;SDS011;51107;47.652;19.016;2024-01-30T01:01:40;6.15;;;3.15;;
64682;SDS011;51107;47.652;19.016;2024-01-30T01:04:09;8.55;;;3.80;;
64682;SDS011;51107;47.652;19.016;2024-01-30T01:06:37;9.50;;;3.95;;
64682;SDS011;51107;47.652;19.016;2024-01-30T01:09:05;9.40;;;3.90;;
64682;SDS011;51107;47.652;19.016;2024-01-30T01:11:33;7.03;;;2.58;;
64682;SDS011;51107;47.652;19.016;2024-01-30T01:14:01;8.00;;;3.70;;
64682;SDS011;51107;47.652;19.016;2024-01-30T01:16:29;12.43;;;4.85;;
64682;SDS011;51107;47.652;19.016;2024-01-30T01:18:58;11.98;;;3.47;;
64682;SDS011;51107;47.652;19.016;2024-01-30T01:21:28;10.38;;;4.40;;
64682;SDS011;51107;47.652;19.016;2024-01-30T01:23:56;7.72;;;2.85;;
64682;SDS011;51107;47.652;19.016;2024-01-30T01:26:24;9.90;;;2.90;;
64682;SDS011;51107;47.652;19.016;2024-01-30T01:28:52;5.87;;;4.25;;
64682;SDS011;51107;47.652;19.016;2024-01-30T01:31:20;11.63;;;4.28;;
64682;SDS011;51107;47.652;19.016;2024-01-30T01:33:52;8.98;;;3.65;;
64682;SDS011;51107;47.652;19.016;2024-01-30T01:36:21;8.75;;;3.97;;
64682;SDS011;51107;47.652;19.016;2024-01-30T01:38:49;13.45;;;4.65;;
64682;SDS011;51107;47.652;19.016;2024-01-30T01:41:17;7.05;;;4.72;;
64682;SDS011;51107;47.652;19.016;2024-01-30T01:43:45;12.13;;;5.70;;
64682;SDS011;51107;47.652;19.016;2024-01-30T01:46:13;19.45;;;7.10;;
64682;SDS011;51107;47.652;19.016;2024-01-30T01:48:42;12.63;;;6.20;;
64682;SDS011;51107;47.652;19.016;2024-01-30T01:51:11;23.20;;;6.57;;
64682;SDS011;51107;47.652;19.016;2024-01-30T01:53:40;12.65;;;6.15;;
64682;SDS011;51107;47.652;19.016;2024-01-30T01:56:08;16.58;;;7.05;;
64682;SDS011;51107;47.652;19.016;2024-01-30T01:58:37;18.87;;;6.75;;
64682;SDS011;51107;47.652;19.016;2024-01-30T02:01:06;15.70;;;6.12;;
64682;SDS011;51107;47.652;19.016;2024-01-30T02:03:35;9.18;;;5.65;;
64682;SDS011;51107;47.652;19.016;2024-01-30T02:06:04;15.45;;;5.28;;
64682;SDS011;51107;47.652;19.016;2024-01-30T02:08:32;7.87;;;3.87;;
64682;SDS011;51107;47.652;19.016;2024-01-30T02:11:01;7.28;;;3.53;;
64682;SDS011;51107;47.652;19.016;2024-01-30T02:13:29;10.32;;;3.80;;
64682;SDS011;51107;47.652;19.016;2024-01-30T02:15:57;14.20;;;3.45;;
64682;SDS011;51107;47.652;19.016;2024-01-30T02:18:25;8.90;;;3.50;;
64682;SDS011;51107;47.652;19.016;2024-01-30T02:20:54;6.18;;;3.33;;
64682;SDS011;51107;47.652;19.016;2024-01-30T02:23:24;4.28;;;2.78;;
64682;SDS011;51107;47.652;19.016;2024-01-30T02:25:53;5.30;;;2.75;;
64682;SDS011;51107;47.652;19.016;2024-01-30T02:28:21;10.73;;;3.65;;
64682;SDS011;51107;47.652;19.016;2024-01-30T02:30:49;7.80;;;3.70;;
64682;SDS011;51107;47.652;19.016;2024-01-30T02:33:18;9.20;;;2.97;;
64682;SDS011;51107;47.652;19.016;2024-01-30T02:35:46;8.32;;;2.80;;
64682;SDS011;51107;47.652;19.016;2024-01-30T02:38:17;6.57;;;3.45;;
64682;SDS011;51107;47.652;19.016;2024-01-30T02:40:46;7.93;;;3.00;;
64682;SDS011;51107;47.652;19.016;2024-01-30T02:43:14;6.78;;;2.62;;
64682;SDS011;51107;47.652;19.016;2024-01-30T02:45:42;5.20;;;3.28;;
64682;SDS011;51107;47.652;19.016;2024-01-30T02:48:11;5.47;;;2.83;;
64682;SDS011;51107;47.652;19.016;2024-01-30T02:50:39;8.20;;;3.10;;
64682;SDS011;51107;47.652;19.016;2024-01-30T02:53:08;4.00;;;2.55;;
64682;SDS011;51107;47.652;19.016;2024-01-30T02:55:36;3.60;;;2.10;;
64682;SDS011;51107;47.652;19.016;2024-01-30T02:58:04;7.57;;;3.35;;
64682;SDS011;51107;47.652;19.016;2024-01-30T03:00:32;10.88;;;3.53;;
64682;SDS011;51107;47.652;19.016;2024-01-30T03:03:00;4.62;;;3.15;;
64682;SDS011;51107;47.652;19.016;2024-01-30T03:05:29;9.80;;;3.15;;
64682;SDS011;51107;47.652;19.016;2024-01-30T03:07:58;8.60;;;3.55;;
64682;SDS011;51107;47.652;19.016;2024-01-30T03:10:26;4.43;;;2.28;;
64682;SDS011;51107;47.652;19.016;2024-01-30T03:12:54;4.93;;;3.08;;
64682;SDS011;51107;47.652;19.016;2024-01-30T03:15:22;4.97;;;2.28;;
64682;SDS011;51107;47.652;19.016;2024-01-30T03:17:50;13.90;;;3.37;;
64682;SDS011;51107;47.652;19.016;2024-01-30T03:20:18;5.35;;;2.58;;
64682;SDS011;51107;47.652;19.016;2024-01-30T03:22:47;3.70;;;2.28;;
64682;SDS011;51107;47.652;19.016;2024-01-30T03:25:15;4.60;;;3.28;;
64682;SDS011;51107;47.652;19.016;2024-01-30T03:27:43;15.32;;;3.55;;
64682;SDS011;51107;47.652;19.016;2024-01-30T03:30:11;4.07;;;2.35;;
64682;SDS011;51107;47.652;19.016;2024-01-30T03:32:39;4.20;;;2.30;;
64682;SDS011;51107;47.652;19.016;2024-01-30T03:35:07;6.15;;;3.08;;
64682;SDS011;51107;47.652;19.016;2024-01-30T03:37:37;4.55;;;2.30;;
64682;SDS011;51107;47.652;19.016;2024-01-30T03:40:05;4.10;;;2.87;;
64682;SDS011;51107;47.652;19.016;2024-01-30T03:42:34;3.05;;;2.00;;
64682;SDS011;51107;47.652;19.016;2024-01-30T03:45:02;5.18;;;2.85;;
64682;SDS011;51107;47.652;19.016;2024-01-30T03:47:31;6.32;;;2.70;;
64682;SDS011;51107;47.652;19.016;2024-01-30T03:49:59;4.43;;;2.10;;
64682;SDS011;51107;47.652;19.016;2024-01-30T03:52:27;12.13;;;4.10;;
64682;SDS011;51107;47.652;19.016;2024-01-30T03:54:56;5.40;;;2.78;;
64682;SDS011;51107;47.652;19.016;2024-01-30T03:57:24;8.50;;;3.55;;
64682;SDS011;51107;47.652;19.016;2024-01-30T03:59:53;5.47;;;2.85;;
64682;SDS011;51107;47.652;19.016;2024-01-30T04:02:21;13.80;;;4.03;;
64682;SDS011;51107;47.652;19.016;2024-01-30T04:04:49;9.50;;;4.55;;
64682;SDS011;51107;47.652;19.016;2024-01-30T04:07:18;12.52;;;5.70;;
64682;SDS011;51107;47.652;19.016;2024-01-30T04:09:51;11.63;;;5.55;;
64682;SDS011;51107;47.652;19.016;2024-01-30T04:12:19;15.52;;;5.60;;
64682;SDS011;51107;47.652;19.016;2024-01-30T04:14:47;6.22;;;4.10;;
64682;SDS011;51107;47.652;19.016;2024-01-30T04:17:15;11.30;;;2.95;;
64682;SDS011;51107;47.652;19.016;2024-01-30T04:19:43;7.68;;;3.50;;
64682;SDS011;51107;47.652;19.016;2024-01-30T04:22:11;13.38;;;3.55;;
64682;SDS011;51107;47.652;19.016;2024-01-30T04:24:40;11.10;;;4.35;;
64682;SDS011;51107;47.652;19.016;2024-01-30T04:27:08;4.35;;;2.10;;
64682;SDS011;51107;47.652;19.016;2024-01-30T04:29:36;8.88;;;5.80;;
64682;SDS011;51107;47.652;19.016;2024-01-30T04:32:04;13.88;;;5.85;;
64682;SDS011;51107;47.652;19.016;2024-01-30T04:34:32;15.38;;;4.40;;
64682;SDS011;51107;47.652;19.016;2024-01-30T04:37:01;7.50;;;4.30;;
64682;SDS011;51107;47.652;19.016;2024-01-30T04:39:30;7.40;;;3.97;;
64682;SDS011;51107;47.652;19.016;2024-01-30T04:42:00;4.75;;;2.87;;
64682;SDS011;51107;47.652;19.016;2024-01-30T04:44:28;4.18;;;2.10;;
64682;SDS011;51107;47.652;19.016;2024-01-30T04:46:56;5.72;;;2.40;;
64682;SDS011;51107;47.652;19.016;2024-01-30T04:49:27;5.25;;;3.20;;
64682;SDS011;51107;47.652;19.016;2024-01-30T04:51:56;9.00;;;2.90;;
64682;SDS011;51107;47.652;19.016;2024-01-30T04:54:24;3.20;;;2.20;;
64682;SDS011;51107;47.652;19.016;2024-01-30T04:56:53;6.82;;;2.87;;
64682;SDS011;51107;47.652;19.016;2024-01-30T04:59:21;8.38;;;3.30;;
64682;SDS011;51107;47.652;19.016;2024-01-30T05:01:49;5.22;;;3.05;;
64682;SDS011;51107;47.652;19.016;2024-01-30T05:04:18;6.35;;;2.83;;
64682;SDS011;51107;47.652;19.016;2024-01-30T05:06:46;1.83;;;1.52;;
64682;SDS011;51107;47.652;19.016;2024-01-30T05:09:14;4.62;;;2.47;;
64682;SDS011;51107;47.652;19.016;2024-01-30T05:11:42;5.47;;;3.08;;
64682;SDS011;51107;47.652;19.016;2024-01-30T05:14:11;5.90;;;3.08;;
64682;SDS011;51107;47.652;19.016;2024-01-30T05:16:40;7.10;;;2.62;;
64682;SDS011;51107;47.652;19.016;2024-01-30T05:19:08;4.05;;;2.55;;
64682;SDS011;51107;47.652;19.016;2024-01-30T05:21:37;6.75;;;2.83;;
64682;SDS011;51107;47.652;19.016;2024-01-30T05:24:05;4.50;;;2.80;;
64682;SDS011;51107;47.652;19.016;2024-01-30T05:26:35;4.30;;;2.37;;
64682;SDS011;51107;47.652;19.016;2024-01-30T05:29:04;6.07;;;2.30;;
64682;SDS011;51107;47.652;19.016;2024-01-30T05:31:34;8.52;;;4.45;;
64682;SDS011;51107;47.652;19.016;2024-01-30T05:34:02;6.05;;;2.85;;
64682;SDS011;51107;47.652;19.016;2024-01-30T05:36:31;4.75;;;3.10;;
64682;SDS011;51107;47.652;19.016;2024-01-30T05:38:59;8.90;;;3.12;;
64682;SDS011;51107;47.652;19.016;2024-01-30T05:41:27;3.67;;;2.28;;
64682;SDS011;51107;47.652;19.016;2024-01-30T05:43:55;6.62;;;3.55;;
64682;SDS011;51107;47.652;19.016;2024-01-30T05:46:23;4.72;;;3.25;;
64682;SDS011;51107;47.652;19.016;2024-01-30T05:48:52;3.35;;;2.30;;
64682;SDS011;51107;47.652;19.016;2024-01-30T05:51:21;5.70;;;3.53;;
64682;SDS011;51107;47.652;19.016;2024-01-30T05:53:50;7.00;;;3.85;;
64682;SDS011;51107;47.652;19.016;2024-01-30T05:56:19;5.32;;;2.67;;
64682;SDS011;51107;47.652;19.016;2024-01-30T05:58:48;10.55;;;4.45;;
64682;SDS011;51107;47.652;19.016;2024-01-30T06:01:17;7.60;;;4.25;;
64682;SDS011;51107;47.652;19.016;2024-01-30T06:03:46;8.98;;;4.30;;
64682;SDS011;51107;47.652;19.016;2024-01-30T06:06:14;5.25;;;3.05;;
64682;SDS011;51107;47.652;19.016;2024-01-30T06:08:42;6.43;;;3.25;;
64682;SDS011;51107;47.652;19.016;2024-01-30T06:11:11;5.85;;;2.97;;
64682;SDS011;51107;47.652;19.016;2024-01-30T06:13:39;5.85;;;3.20;;
64682;SDS011;51107;47.652;19.016;2024-01-30T06:16:10;11.35;;;4.20;;
64682;SDS011;51107;47.652;19.016;2024-01-30T06:18:39;6.28;;;3.80;;
64682;SDS011;51107;47.652;19.016;2024-01-30T06:21:08;7.93;;;3.67;;
64682;SDS011;51107;47.652;19.016;2024-01-30T06:23:40;7.50;;;4.00;;
64682;SDS011;51107;47.652;19.016;2024-01-30T06:26:08;7.85;;;4.32;;
64682;SDS011;51107;47.652;19.016;2024-01-30T06:28:36;7.80;;;3.80;;
64682;SDS011;51107;47.652;19.016;2024-01-30T06:31:04;9.82;;;4.70;;
64682;SDS011;51107;47.652;19.016;2024-01-30T06:33:32;7.75;;;4.35;;
64682;SDS011;51107;47.652;19.016;2024-01-30T06:36:01;7.82;;;4.07;;
64682;SDS011;51107;47.652;19.016;2024-01-30T06:38:29;17.48;;;3.72;;
64682;SDS011;51107;47.652;19.016;2024-01-30T06:40:57;11.70;;;5.72;;
64682;SDS011;51107;47.652;19.016;2024-01-30T06:43:26;5.45;;;3.85;;
64682;SDS011;51107;47.652;19.016;2024-01-30T06:45:54;5.95;;;3.35;;
64682;SDS011;51107;47.652;19.016;2024-01-30T06:48:22;10.65;;;5.10;;
64682;SDS011;51107;47.652;19.016;2024-01-30T06:50:53;16.42;;;5.75;;
64682;SDS011;51107;47.652;19.016;2024-01-30T06:53:22;11.40;;;5.75;;
64682;SDS011;51107;47.652;19.016;2024-01-30T06:55:51;10.60;;;4.70;;
64682;SDS011;51107;47.652;19.016;2024-01-30T06:58:19;10.73;;;4.43;;
64682;SDS011;51107;47.652;19.016;2024-01-30T07:00:48;8.90;;;5.25;;
64682;SDS011;51107;47.652;19.016;2024-01-30T07:03:17;8.18;;;5.15;;
64682;SDS011;51107;47.652;19.016;2024-01-30T07:05:45;6.05;;;2.95;;
64682;SDS011;51107;47.652;19.016;2024-01-30T07:08:13;9.40;;;5.20;;
64682;SDS011;51107;47.652;19.016;2024-01-30T07:10:45;4.15;;;3.30;;
64682;SDS011;51107;47.652;19.016;2024-01-30T07:13:13;14.18;;;3.50;;
64682;SDS011;51107;47.652;19.016;2024-01-30T07:15:44;4.43;;;2.25;;
64682;SDS011;51107;47.652;19.016;2024-01-30T07:18:12;18.42;;;4.62;;
64682;SDS011;51107;47.652;19.016;2024-01-30T07:20:41;6.93;;;3.85;;
64682;SDS011;51107;47.652;19.016;2024-01-30T07:23:14;9.98;;;4.68;;
64682;SDS011;51107;47.652;19.016;2024-01-30T07:25:44;10.65;;;4.45;;
64682;SDS011;51107;47.652;19.016;2024-01-30T07:28:15;12.50;;;3.60;;
64682;SDS011;51107;47.652;19.016;2024-01-30T07:30:45;4.57;;;3.17;;
64682;SDS011;51107;47.652;19.016;2024-01-30T07:33:13;9.10;;;4.72;;
64682;SDS011;51107;47.652;19.016;2024-01-30T07:35:42;9.20;;;3.65;;
64682;SDS011;51107;47.652;19.016;2024-01-30T07:38:10;11.60;;;4.32;;
64682;SDS011;51107;47.652;19.016;2024-01-30T07:40:38;9.85;;;4.22;;
64682;SDS011;51107;47.652;19.016;2024-01-30T07:43:06;11.68;;;4.05;;
64682;SDS011;51107;47.652;19.016;2024-01-30T07:45:35;6.68;;;4.03;;
64682;SDS011;51107;47.652;19.016;2024-01-30T07:48:04;14.75;;;3.10;;
64682;SDS011;51107;47.652;19.016;2024-01-30T07:50:33;7.03;;;3.25;;
64682;SDS011;51107;47.652;19.016;2024-01-30T07:53:02;12.77;;;4.65;;
64682;SDS011;51107;47.652;19.016;2024-01-30T07:56:05;5.80;;;2.37;;
64682;SDS011;51107;47.652;19.016;2024-01-30T07:58:28;13.95;;;5.75;;
64682;SDS011;51107;47.652;19.016;2024-01-30T08:00:57;18.98;;;5.90;;
64682;SDS011;51107;47.652;19.016;2024-01-30T08:03:26;12.65;;;5.85;;
64682;SDS011;51107;47.652;19.016;2024-01-30T08:05:54;14.75;;;5.18;;
64682;SDS011;51107;47.652;19.016;2024-01-30T08:08:23;16.95;;;6.70;;
64682;SDS011;51107;47.652;19.016;2024-01-30T08:10:51;11.80;;;6.22;;
64682;SDS011;51107;47.652;19.016;2024-01-30T08:13:19;15.10;;;7.25;;
64682;SDS011;51107;47.652;19.016;2024-01-30T08:15:47;10.88;;;5.93;;
64682;SDS011;51107;47.652;19.016;2024-01-30T08:18:16;12.25;;;6.07;;
64682;SDS011;51107;47.652;19.016;2024-01-30T08:20:44;14.10;;;5.93;;
64682;SDS011;51107;47.652;19.016;2024-01-30T08:23:12;13.00;;;6.37;;
64682;SDS011;51107;47.652;19.016;2024-01-30T08:25:40;17.10;;;7.80;;
64682;SDS011;51107;47.652;19.016;2024-01-30T08:28:08;25.58;;;9.30;;
64682;SDS011;51107;47.652;19.016;2024-01-30T08:30:37;15.20;;;8.45;;
64682;SDS011;51107;47.652;19.016;2024-01-30T08:33:07;13.50;;;7.50;;
64682;SDS011;51107;47.652;19.016;2024-01-30T08:35:35;12.60;;;6.78;;
64682;SDS011;51107;47.652;19.016;2024-01-30T08:38:03;11.43;;;5.40;;
64682;SDS011;51107;47.652;19.016;2024-01-30T08:40:34;12.43;;;6.22;;
64682;SDS011;51107;47.652;19.016;2024-01-30T08:43:03;11.98;;;6.05;;
64682;SDS011;51107;47.652;19.016;2024-01-30T08:45:31;14.55;;;7.20;;
64682;SDS011;51107;47.652;19.016;2024-01-30T08:48:00;13.05;;;6.45;;
64682;SDS011;51107;47.652;19.016;2024-01-30T08:50:28;19.37;;;7.47;;
64682;SDS011;51107;47.652;19.016;2024-01-30T08:52:57;11.27;;;5.20;;
64682;SDS011;51107;47.652;19.016;2024-01-30T08:55:26;11.88;;;5.78;;
64682;SDS011;51107;47.652;19.016;2024-01-30T08:57:54;19.58;;;6.53;;
64682;SDS011;51107;47.652;19.016;2024-01-30T09:00:22;14.55;;;7.12;;
64682;SDS011;51107;47.652;19.016;2024-01-30T09:02:51;11.70;;;6.68;;
64682;SDS011;51107;47.652;19.016;2024-01-30T09:05:19;16.77;;;6.57;;
64682;SDS011;51107;47.652;19.016;2024-01-30T09:07:47;17.20;;;7.72;;
64682;SDS011;51107;47.652;19.016;2024-01-30T09:10:15;20.65;;;8.38;;
64682;SDS011;51107;47.652;19.016;2024-01-30T09:12:47;17.42;;;7.85;;
64682;SDS011;51107;47.652;19.016;2024-01-30T09:15:17;13.75;;;7.47;;
64682;SDS011;51107;47.652;19.016;2024-01-30T09:17:46;17.65;;;7.93;;
64682;SDS011;51107;47.652;19.016;2024-01-30T09:20:14;27.17;;;7.53;;
64682;SDS011;51107;47.652;19.016;2024-01-30T09:22:43;16.12;;;6.18;;
64682;SDS011;51107;47.652;19.016;2024-01-30T09:25:11;16.27;;;7.28;;
64682;SDS011;51107;47.652;19.016;2024-01-30T09:27:40;18.33;;;7.53;;
64682;SDS011;51107;47.652;19.016;2024-01-30T09:30:08;20.70;;;7.37;;
64682;SDS011;51107;47.652;19.016;2024-01-30T09:32:36;16.70;;;6.78;;
64682;SDS011;51107;47.652;19.016;2024-01-30T09:35:05;12.85;;;5.53;;
64682;SDS011;51107;47.652;19.016;2024-01-30T09:37:34;8.15;;;4.20;;
64682;SDS011;51107;47.652;19.016;2024-01-30T09:40:02;9.88;;;5.20;;
64682;SDS011;51107;47.652;19.016;2024-01-30T09:42:35;9.80;;;4.47;;
64682;SDS011;51107;47.652;19.016;2024-01-30T09:45:04;11.60;;;4.68;;
64682;SDS011;51107;47.652;19.016;2024-01-30T09:47:41;13.25;;;7.35;;
64682;SDS011;51107;47.652;19.016;2024-01-30T09:50:11;12.73;;;5.65;;
64682;SDS011;51107;47.652;19.016;2024-01-30T09:52:40;8.43;;;3.72;;
64682;SDS011;51107;47.652;19.016;2024-01-30T09:55:10;10.43;;;5.25;;
64682;SDS011;51107;47.652;19.016;2024-01-30T09:57:38;10.20;;;5.20;;
64682;SDS011;51107;47.652;19.016;2024-01-30T10:00:07;12.10;;;5.37;;
64682;SDS011;51107;47.652;19.016;2024-01-30T10:02:38;16.02;;;5.87;;
64682;SDS011;51107;47.652;19.016;2024-01-30T10:05:08;13.65;;;5.62;;
64682;SDS011;51107;47.652;19.016;2024-01-30T10:07:37;11.35;;;4.72;;
64682;SDS011;51107;47.652;19.016;2024-01-30T10:10:05;10.95;;;5.30;;
64682;SDS011;51107;47.652;19.016;2024-01-30T10:12:35;12.82;;;5.85;;
64682;SDS011;51107;47.652;19.016;2024-01-30T10:15:06;12.77;;;5.57;;
64682;SDS011;51107;47.652;19.016;2024-01-30T10:17:37;9.82;;;4.78;;
64682;SDS011;51107;47.652;19.016;2024-01-30T10:20:05;10.90;;;5.22;;
64682;SDS011;51107;47.652;19.016;2024-01-30T10:22:36;10.02;;;5.45;;
64682;SDS011;51107;47.652;19.016;2024-01-30T10:25:04;10.02;;;4.78;;
64682;SDS011;51107;47.652;19.016;2024-01-30T10:27:33;8.48;;;5.20;;
64682;SDS011;51107;47.652;19.016;2024-01-30T10:30:01;13.15;;;5.62;;
64682;SDS011;51107;47.652;19.016;2024-01-30T10:32:32;12.77;;;5.30;;
64682;SDS011;51107;47.652;19.016;2024-01-30T10:35:00;11.38;;;5.25;;
64682;SDS011;51107;47.652;19.016;2024-01-30T10:37:28;9.38;;;5.03;;
64682;SDS011;51107;47.652;19.016;2024-01-30T10:40:00;15.98;;;7.03;;
64682;SDS011;51107;47.652;19.016;2024-01-30T10:42:32;14.48;;;5.70;;
64682;SDS011;51107;47.652;19.016;2024-01-30T10:45:04;13.65;;;5.90;;
64682;SDS011;51107;47.652;19.016;2024-01-30T10:47:36;13.05;;;5.95;;
64682;SDS011;51107;47.652;19.016;2024-01-30T10:50:05;10.30;;;5.78;;
64682;SDS011;51107;47.652;19.016;2024-01-30T10:52:36;13.32;;;6.07;;
64682;SDS011;51107;47.652;19.016;2024-01-30T10:55:05;17.00;;;6.05;;
64682;SDS011;51107;47.652;19.016;2024-01-30T10:57:34;9.82;;;5.18;;
64682;SDS011;51107;47.652;19.016;2024-01-30T11:00:05;15.60;;;7.53;;
64682;SDS011;51107;47.652;19.016;2024-01-30T11:02:40;10.77;;;5.53;;
64682;SDS011;51107;47.652;19.016;2024-01-30T11:05:12;11.68;;;5.62;;
64682;SDS011;51107;47.652;19.016;2024-01-30T11:07:40;10.55;;;5.75;;
64682;SDS011;51107;47.652;19.016;2024-01-30T11:10:09;13.18;;;5.12;;
64682;SDS011;51107;47.652;19.016;2024-01-30T11:12:41;14.85;;;5.80;;
64682;SDS011;51107;47.652;19.016;2024-01-30T11:15:17;11.88;;;5.05;;
64682;SDS011;51107;47.652;19.016;2024-01-30T11:20:19;12.05;;;5.62;;
64682;SDS011;51107;47.652;19.016;2024-01-30T11:22:50;13.70;;;4.55;;
64682;SDS011;51107;47.652;19.016;2024-01-30T11:25:20;12.70;;;5.05;;
64682;SDS011;51107;47.652;19.016;2024-01-30T11:27:50;16.20;;;5.45;;
64682;SDS011;51107;47.652;19.016;2024-01-30T11:30:29;10.40;;;5.45;;
64682;SDS011;51107;47.652;19.016;2024-01-30T11:35:35;12.63;;;5.20;;
64682;SDS011;51107;47.652;19.016;2024-01-30T11:38:05;8.30;;;4.57;;
64682;SDS011;51107;47.652;19.016;2024-01-30T11:40:34;11.48;;;4.87;;
64682;SDS011;51107;47.652;19.016;2024-01-30T11:43:06;10.90;;;4.78;;
64682;SDS011;51107;47.652;19.016;2024-01-30T11:45:35;12.68;;;5.05;;
64682;SDS011;51107;47.652;19.016;2024-01-30T11:48:05;10.82;;;4.72;;
64682;SDS011;51107;47.652;19.016;2024-01-30T11:50:34;9.98;;;4.40;;
64682;SDS011;51107;47.652;19.016;2024-01-30T11:53:02;11.35;;;5.20;;
64682;SDS011;51107;47.652;19.016;2024-01-30T11:55:33;15.18;;;5.97;;
64682;SDS011;51107;47.652;19.016;2024-01-30T11:58:03;12.55;;;5.68;;
64682;SDS011;51107;47.652;19.016;2024-01-30T12:00:32;7.82;;;4.43;;
64682;SDS011;51107;47.652;19.016;2024-01-30T12:03:02;14.60;;;5.30;;
64682;SDS011;51107;47.652;19.016;2024-01-30T12:05:33;11.18;;;4.45;;
64682;SDS011;51107;47.652;19.016;2024-01-30T12:08:01;15.20;;;6.20;;
64682;SDS011;51107;47.652;19.016;2024-01-30T12:10:30;11.07;;;4.80;;
64682;SDS011;51107;47.652;19.016;2024-01-30T12:12:58;8.75;;;4.28;;
64682;SDS011;51107;47.652;19.016;2024-01-30T12:15:27;10.50;;;4.93;;
64682;SDS011;51107;47.652;19.016;2024-01-30T12:18:04;9.60;;;4.72;;
64682;SDS011;51107;47.652;19.016;2024-01-30T12:20:35;10.20;;;3.80;;
64682;SDS011;51107;47.652;19.016;2024-01-30T12:23:04;15.43;;;3.35;;
64682;SDS011;51107;47.652;19.016;2024-01-30T12:25:33;17.77;;;4.32;;
64682;SDS011;51107;47.652;19.016;2024-01-30T12:28:01;8.35;;;3.60;;
64682;SDS011;51107;47.652;19.016;2024-01-30T12:30:30;9.20;;;3.78;;
64682;SDS011;51107;47.652;19.016;2024-01-30T12:32:59;5.68;;;2.92;;
64682;SDS011;51107;47.652;19.016;2024-01-30T12:35:29;6.12;;;2.85;;
64682;SDS011;51107;47.652;19.016;2024-01-30T12:38:00;9.40;;;4.47;;
64682;SDS011;51107;47.652;19.016;2024-01-30T12:40:28;7.72;;;3.25;;
64682;SDS011;51107;47.652;19.016;2024-01-30T12:42:57;5.47;;;2.90;;
64682;SDS011;51107;47.652;19.016;2024-01-30T12:45:25;3.65;;;2.20;;
64682;SDS011;51107;47.652;19.016;2024-01-30T12:47:53;5.75;;;2.45;;
64682;SDS011;51107;47.652;19.016;2024-01-30T12:50:23;6.78;;;3.00;;
64682;SDS011;51107;47.652;19.016;2024-01-30T12:52:51;8.63;;;3.28;;
64682;SDS011;51107;47.652;19.016;2024-01-30T12:55:20;5.50;;;2.67;;
64682;SDS011;51107;47.652;19.016;2024-01-30T12:57:48;6.10;;;3.40;;
64682;SDS011;51107;47.652;19.016;2024-01-30T13:00:16;5.53;;;2.80;;
64682;SDS011;51107;47.652;19.016;2024-01-30T13:02:45;8.43;;;3.33;;
64682;SDS011;51107;47.652;19.016;2024-01-30T13:05:15;10.27;;;3.50;;
64682;SDS011;51107;47.652;19.016;2024-01-30T13:07:45;6.95;;;3.08;;
64682;SDS011;51107;47.652;19.016;2024-01-30T13:10:13;4.87;;;1.95;;
64682;SDS011;51107;47.652;19.016;2024-01-30T13:12:42;5.72;;;3.05;;
64682;SDS011;51107;47.652;19.016;2024-01-30T13:15:10;5.10;;;2.65;;
64682;SDS011;51107;47.652;19.016;2024-01-30T13:17:39;5.97;;;3.25;;
64682;SDS011;51107;47.652;19.016;2024-01-30T13:20:08;5.60;;;3.05;;
64682;SDS011;51107;47.652;19.016;2024-01-30T13:22:39;3.85;;;2.10;;
64682;SDS011;51107;47.652;19.016;2024-01-30T13:25:08;5.70;;;3.33;;
64682;SDS011;51107;47.652;19.016;2024-01-30T13:27:37;7.87;;;3.40;;
64682;SDS011;51107;47.652;19.016;2024-01-30T13:30:06;5.50;;;3.05;;
64682;SDS011;51107;47.652;19.016;2024-01-30T13:32:38;3.80;;;2.37;;
64682;SDS011;51107;47.652;19.016;2024-01-30T13:35:06;6.22;;;2.10;;
64682;SDS011;51107;47.652;19.016;2024-01-30T13:37:35;3.45;;;2.08;;
64682;SDS011;51107;47.652;19.016;2024-01-30T13:40:04;3.03;;;2.15;;
64682;SDS011;51107;47.652;19.016;2024-01-30T13:42:41;4.05;;;1.77;;
64682;SDS011;51107;47.652;19.016;2024-01-30T13:45:09;3.95;;;1.70;;
64682;SDS011;51107;47.652;19.016;2024-01-30T13:47:38;6.20;;;1.85;;
64682;SDS011;51107;47.652;19.016;2024-01-30T13:50:07;4.72;;;2.30;;
64682;SDS011;51107;47.652;19.016;2024-01-30T13:52:36;3.97;;;2.10;;
64682;SDS011;51107;47.652;19.016;2024-01-30T13:55:11;3.90;;;1.73;;
64682;SDS011;51107;47.652;19.016;2024-01-30T13:57:41;5.82;;;2.10;;
64682;SDS011;51107;47.652;19.016;2024-01-30T14:00:09;11.95;;;2.67;;
64682;SDS011;51107;47.652;19.016;2024-01-30T14:02:39;4.75;;;2.42;;
64682;SDS011;51107;47.652;19.016;2024-01-30T14:05:08;7.15;;;2.47;;
64682;SDS011;51107;47.652;19.016;2024-01-30T14:07:36;3.78;;;1.90;;
64682;SDS011;51107;47.652;19.016;2024-01-30T14:10:07;3.87;;;1.80;;
64682;SDS011;51107;47.652;19.016;2024-01-30T14:12:42;14.77;;;2.20;;
64682;SDS011;51107;47.652;19.016;2024-01-30T14:15:16;3.75;;;2.40;;
64682;SDS011;51107;47.652;19.016;2024-01-30T14:17:56;4.12;;;1.67;;
64682;SDS011;51107;47.652;19.016;2024-01-30T14:20:26;3.92;;;2.03;;
64682;SDS011;51107;47.652;19.016;2024-01-30T14:22:54;4.90;;;2.35;;
64682;SDS011;51107;47.652;19.016;2024-01-30T14:25:24;7.20;;;2.22;;
64682;SDS011;51107;47.652;19.016;2024-01-30T14:27:54;4.20;;;2.30;;
64682;SDS011;51107;47.652;19.016;2024-01-30T14:30:22;4.80;;;2.45;;
64682;SDS011;51107;47.652;19.016;2024-01-30T14:32:51;4.87;;;2.92;;
64682;SDS011;51107;47.652;19.016;2024-01-30T14:35:20;3.40;;;1.77;;
64682;SDS011;51107;47.652;19.016;2024-01-30T14:37:48;8.68;;;3.03;;
64682;SDS011;51107;47.652;19.016;2024-01-30T14:40:17;4.72;;;2.30;;
64682;SDS011;51107;47.652;19.016;2024-01-30T14:42:47;3.75;;;2.60;;
64682;SDS011;51107;47.652;19.016;2024-01-30T14:45:15;10.35;;;3.70;;